createdAt,value
2023-04-27T00:04:39.861Z,45.54
2023-04-27T00:09:54.385Z,45.31
2023-04-27T00:14:46.786Z,45.69
2023-04-27T00:19:46.699Z,45.90
2023-04-27T00:24:46.630Z,46.00
2023-04-27T00:29:46.571Z,46.15
2023-04-27T00:34:46.575Z,46.25
2023-04-27T00:39:46.502Z,46.36
2023-04-27T00:44:46.404Z,46.53
2023-04-27T00:49:46.316Z,46.65
2023-04-27T00:54:46.272Z,46.74
2023-04-27T00:59:46.194Z,46.83
2023-04-27T01:04:46.145Z,46.89
2023-04-27T01:09:46.034Z,46.97
2023-04-27T01:14:45.979Z,47.02
2023-04-27T01:19:45.950Z,47.09
2023-04-27T01:24:45.893Z,47.18
2023-04-27T01:29:45.754Z,47.25
2023-04-27T01:34:45.720Z,47.33
2023-04-27T01:39:45.674Z,47.45
2023-04-27T01:44:45.616Z,47.60
2023-04-27T01:49:45.493Z,47.67
2023-04-27T01:54:45.501Z,47.72
2023-04-27T01:59:45.365Z,47.77
2023-04-27T02:04:45.609Z,47.85
2023-04-27T02:09:45.268Z,47.96
2023-04-27T02:14:45.214Z,48.10
2023-04-27T02:19:45.125Z,48.23
2023-04-27T02:24:45.091Z,48.36
2023-04-27T02:29:44.978Z,48.52
2023-04-27T02:34:44.960Z,48.64
2023-04-27T02:39:44.929Z,48.71
2023-04-27T02:44:44.822Z,48.82
2023-04-27T02:49:44.739Z,48.94
2023-04-27T02:54:44.723Z,49.01
2023-04-27T02:59:44.586Z,49.09
2023-04-27T03:04:44.665Z,49.17
2023-04-27T03:09:44.484Z,49.27
2023-04-27T03:14:44.466Z,49.38
2023-04-27T03:19:44.345Z,49.51
2023-04-27T03:24:44.324Z,49.68
2023-04-27T03:29:44.225Z,49.83
2023-04-27T03:34:44.197Z,49.97
2023-04-27T03:39:44.080Z,50.07
2023-04-27T03:44:44.079Z,50.15
2023-04-27T03:49:43.967Z,50.17
2023-04-27T03:54:43.903Z,50.19
2023-04-27T03:59:43.901Z,50.14
2023-04-27T04:04:43.938Z,50.11
2023-04-27T04:09:43.703Z,50.11
2023-04-27T04:14:43.670Z,50.14
2023-04-27T04:19:58.043Z,49.80
2023-04-27T04:24:50.464Z,50.17
2023-04-27T04:29:50.462Z,50.33
2023-04-27T04:34:50.333Z,50.37
2023-04-27T04:39:50.299Z,50.35
2023-04-27T04:44:50.272Z,50.29
2023-04-27T04:49:50.147Z,50.29
2023-04-27T04:54:50.082Z,50.29
2023-04-27T04:59:50.038Z,50.17
2023-04-27T05:04:50.079Z,49.97
2023-04-27T05:09:49.901Z,49.74
2023-04-27T05:14:49.821Z,49.55
2023-04-27T05:19:49.800Z,49.28
2023-04-27T05:24:49.712Z,49.04
2023-04-27T05:29:49.642Z,48.72
2023-04-27T05:34:49.788Z,48.55
2023-04-27T05:39:49.511Z,48.55
2023-04-27T05:44:49.462Z,48.50
2023-04-27T05:49:49.375Z,48.30
2023-04-27T05:54:49.306Z,47.94
2023-04-27T05:59:49.255Z,47.57
2023-04-27T06:04:49.200Z,47.14
2023-04-27T06:09:49.150Z,47.02
2023-04-27T06:14:49.134Z,46.64
2023-04-27T06:19:49.065Z,46.06
2023-04-27T06:24:48.938Z,44.16
2023-04-27T06:29:48.933Z,38.26
2023-04-27T06:34:48.776Z,34.59
2023-04-27T06:39:48.715Z,32.84
2023-04-27T06:44:48.657Z,34.68
2023-04-27T06:49:49.898Z,30.14
2023-04-27T06:54:48.494Z,27.54
2023-04-27T06:59:48.680Z,28.80
2023-04-27T07:04:48.476Z,26.35
2023-04-27T07:09:48.354Z,27.01
2023-04-27T07:14:48.235Z,26.71
2023-04-27T07:19:48.219Z,27.27
2023-04-27T07:24:48.091Z,27.80
2023-04-27T07:29:48.064Z,28.61
2023-04-27T07:34:53.616Z,28.40
2023-04-27T07:39:48.987Z,29.01
2023-04-27T07:44:47.865Z,27.94
2023-04-27T07:49:47.777Z,27.04
2023-04-27T07:54:47.699Z,25.37
2023-04-27T07:59:47.660Z,23.09
2023-04-27T08:04:48.216Z,21.50
2023-04-27T08:09:47.494Z,21.03
2023-04-27T08:14:47.444Z,21.03
2023-04-27T08:19:47.397Z,21.68
2023-04-27T08:24:47.323Z,22.26
2023-04-27T08:29:47.249Z,22.00
2023-04-27T08:34:47.174Z,22.42
2023-04-27T08:39:47.130Z,22.17
2023-04-27T08:44:47.046Z,22.59
2023-04-27T08:50:16.771Z,22.81
2023-04-27T08:55:09.190Z,22.29
2023-04-27T09:00:09.120Z,22.05
2023-04-27T09:05:09.288Z,21.69
2023-04-27T09:10:08.973Z,21.59
2023-04-27T09:15:09.012Z,21.12
2023-04-27T09:20:08.835Z,20.42
2023-04-27T09:25:08.836Z,20.01
2023-04-27T09:30:08.727Z,19.00
2023-04-27T09:35:08.691Z,18.70
2023-04-27T09:40:08.606Z,17.49
2023-04-27T09:45:08.489Z,17.32
2023-04-27T09:50:08.452Z,17.43
2023-04-27T09:55:08.360Z,16.95
2023-04-27T10:00:08.362Z,17.26
2023-04-27T10:05:08.220Z,17.46
2023-04-27T10:10:08.170Z,17.32
2023-04-27T10:15:08.129Z,17.56
2023-04-27T10:20:08.157Z,16.71
2023-04-27T10:25:07.986Z,17.26
2023-04-27T10:30:07.931Z,17.74
2023-04-27T10:35:07.833Z,17.31
2023-04-27T10:40:07.799Z,17.33
2023-04-27T10:45:07.705Z,17.67
2023-04-27T10:50:07.660Z,18.37
2023-04-27T10:55:07.588Z,18.53
2023-04-27T11:00:07.542Z,18.64
2023-04-27T11:05:07.655Z,18.42
2023-04-27T11:10:07.416Z,18.26
2023-04-27T11:15:07.313Z,17.90
2023-04-27T11:20:07.273Z,18.13
2023-04-27T11:25:07.234Z,17.58
2023-04-27T11:30:07.140Z,18.37
2023-04-27T11:35:07.041Z,18.65
2023-04-27T11:40:06.990Z,19.14
2023-04-27T11:45:06.994Z,18.98
2023-04-27T11:50:06.898Z,18.75
2023-04-27T11:55:06.812Z,18.98
2023-04-27T12:00:06.816Z,19.13
2023-04-27T12:05:06.996Z,19.24
2023-04-27T12:10:06.605Z,19.55
2023-04-27T12:15:06.575Z,19.78
2023-04-27T12:20:06.653Z,19.57
2023-04-27T12:25:06.615Z,20.06
2023-04-27T12:30:07.384Z,20.15
2023-04-27T12:35:06.647Z,20.42
2023-04-27T12:40:06.199Z,20.63
2023-04-27T12:45:06.150Z,20.95
2023-04-27T12:50:06.083Z,20.92
2023-04-27T12:55:06.002Z,21.28
2023-04-27T13:00:05.954Z,21.67
2023-04-27T13:05:05.950Z,21.53
2023-04-27T13:10:05.857Z,22.03
2023-04-27T13:15:05.768Z,22.15
2023-04-27T13:20:05.684Z,22.45
2023-04-27T13:25:05.593Z,22.63
2023-04-27T13:30:05.620Z,23.04
2023-04-27T13:35:05.490Z,23.23
2023-04-27T13:40:05.412Z,23.31
2023-04-27T13:45:05.338Z,23.46
2023-04-27T13:50:05.280Z,23.62
2023-04-27T13:55:05.196Z,23.57
2023-04-27T14:00:05.162Z,23.55
2023-04-27T14:05:05.153Z,23.62
2023-04-27T14:10:05.115Z,23.73
2023-04-27T14:20:04.986Z,24.11
2023-04-27T14:25:04.786Z,24.28
2023-04-27T14:30:04.753Z,24.83
2023-04-27T14:35:04.707Z,24.99
2023-04-27T14:40:04.609Z,24.66
2023-04-27T14:45:04.551Z,24.56
2023-04-27T14:50:04.546Z,24.19
2023-04-27T14:55:04.442Z,24.47
2023-04-27T15:00:04.364Z,25.10
2023-04-27T15:05:04.365Z,25.47
2023-04-27T15:10:04.216Z,25.83
2023-04-27T15:15:04.158Z,26.15
2023-04-27T15:20:04.112Z,26.44
2023-04-27T15:25:03.999Z,26.36
2023-04-27T15:30:03.999Z,26.29
2023-04-27T15:35:03.878Z,26.22
2023-04-27T15:40:03.910Z,26.23
2023-04-27T15:45:03.756Z,26.20
2023-04-27T15:50:03.822Z,26.37
2023-04-27T15:55:03.627Z,26.78
2023-04-27T16:00:03.573Z,26.93
2023-04-27T16:05:03.485Z,27.32
2023-04-27T16:10:03.496Z,27.70
2023-04-27T16:15:03.312Z,27.81
2023-04-27T16:20:03.345Z,28.28
2023-04-27T16:25:03.229Z,28.02
2023-04-27T16:30:03.174Z,28.29
2023-04-27T16:35:03.325Z,28.71
2023-04-27T16:40:03.127Z,28.96
2023-04-27T16:45:02.993Z,29.01
2023-04-27T16:50:02.920Z,29.14
2023-04-27T16:55:02.805Z,29.40
2023-04-27T17:00:02.835Z,29.67
2023-04-27T17:05:02.715Z,29.91
2023-04-27T17:10:02.622Z,30.12
2023-04-27T17:15:02.628Z,30.24
2023-04-27T17:20:02.502Z,30.36
2023-04-27T17:25:02.387Z,30.51
2023-04-27T17:30:02.355Z,30.79
2023-04-27T17:35:02.352Z,31.11
2023-04-27T17:40:02.226Z,31.39
2023-04-27T17:45:02.166Z,31.59
2023-04-27T17:50:02.114Z,31.77
2023-04-27T17:55:09.912Z,32.07
2023-04-27T18:00:01.993Z,32.32
2023-04-27T18:05:01.945Z,32.60
2023-04-27T18:10:01.824Z,32.87
2023-04-27T18:15:04.349Z,33.10
2023-04-27T18:20:08.145Z,33.33
2023-04-27T18:25:02.675Z,33.54
2023-04-27T18:30:01.583Z,33.79
2023-04-27T18:35:01.489Z,34.03
2023-04-27T18:40:01.440Z,34.19
2023-04-27T18:45:01.353Z,34.36
2023-04-27T18:50:01.315Z,34.51
2023-04-27T18:55:01.221Z,34.66
2023-04-27T19:00:01.226Z,34.81
2023-04-27T19:05:10.835Z,34.97
2023-04-27T19:10:02.073Z,35.06
2023-04-27T19:15:00.948Z,35.28
2023-04-27T19:20:00.917Z,35.36
2023-04-27T19:25:00.835Z,35.45
2023-04-27T19:30:00.758Z,35.67
2023-04-27T19:35:00.729Z,35.76
2023-04-27T19:40:00.650Z,35.87
2023-04-27T19:45:00.524Z,35.98
2023-04-27T19:50:00.522Z,36.08
2023-04-27T19:55:00.430Z,36.16
2023-04-27T20:00:00.406Z,36.23
2023-04-27T20:05:00.488Z,36.31
2023-04-27T20:10:00.238Z,36.44
2023-04-27T20:15:00.220Z,36.51
2023-04-27T20:20:00.128Z,36.60
2023-04-27T20:25:00.070Z,36.67
2023-04-27T20:29:59.963Z,36.79
2023-04-27T20:35:02.031Z,36.90
2023-04-27T20:39:59.832Z,36.99
2023-04-27T20:44:59.756Z,37.18
2023-04-27T20:49:59.712Z,37.31
2023-04-27T20:54:59.627Z,37.54
2023-04-27T20:59:59.556Z,37.62
2023-04-27T21:04:59.533Z,37.72
2023-04-27T21:09:59.415Z,37.81
2023-04-27T21:14:59.363Z,37.88
2023-04-27T21:19:59.253Z,38.05
2023-04-27T21:24:59.239Z,38.16
2023-04-27T21:29:59.152Z,38.15
2023-04-27T21:34:59.078Z,38.37
2023-04-27T21:39:59.004Z,38.38
2023-04-27T21:44:58.974Z,38.47
2023-04-27T21:49:58.880Z,38.50
2023-04-27T21:54:58.829Z,38.59
2023-04-27T21:59:58.764Z,38.66
2023-04-27T22:04:58.812Z,38.75
2023-04-27T22:09:58.616Z,38.84
2023-04-27T22:14:58.588Z,38.95
2023-04-27T22:19:58.492Z,39.01
2023-04-27T22:24:58.433Z,39.05
2023-04-27T22:29:58.345Z,39.15
2023-04-27T22:34:58.306Z,39.17
2023-04-27T22:39:58.215Z,39.20
2023-04-27T22:44:58.147Z,39.19
2023-04-27T22:49:58.115Z,39.28
2023-04-27T22:54:58.031Z,39.38
2023-04-27T22:59:57.939Z,39.44
2023-04-27T23:04:57.903Z,39.50
2023-04-27T23:09:57.832Z,39.60
2023-04-27T23:14:57.760Z,39.64
2023-04-27T23:19:57.677Z,39.69
2023-04-27T23:24:57.638Z,39.73
2023-04-27T23:29:57.559Z,39.88
2023-04-27T23:34:57.525Z,40.01
2023-04-27T23:39:57.421Z,40.14
2023-04-27T23:44:57.349Z,40.25
2023-04-27T23:49:57.289Z,40.34
2023-04-27T23:54:57.250Z,40.40
2023-04-27T23:59:57.145Z,40.38
